createdAt,value
2019-02-05T00:00:17.277Z,70.07
2019-02-05T00:02:45.741Z,69.44
2019-02-05T00:05:14.372Z,69.44
2019-02-05T00:07:42.878Z,68.82
2019-02-05T00:10:11.418Z,68.85
2019-02-05T00:12:40.178Z,69.49
2019-02-05T00:15:08.758Z,69.49
2019-02-05T00:17:37.258Z,69.07
2019-02-05T00:20:06.929Z,69.28
2019-02-05T00:22:35.407Z,68.49
2019-02-05T00:25:04.970Z,68.49
2019-02-05T00:27:33.418Z,68.83
2019-02-05T00:30:01.911Z,67.95
2019-02-05T00:32:30.374Z,67.95
2019-02-05T00:34:59.194Z,68.32
2019-02-05T00:37:27.674Z,68.32
2019-02-05T00:39:56.131Z,68.15
2019-02-05T00:42:24.580Z,68.18
2019-02-05T00:44:53.071Z,67.76
2019-02-05T00:47:21.526Z,67.76
2019-02-05T00:49:49.984Z,68.07
2019-02-05T00:52:18.562Z,68.04
2019-02-05T00:54:47.015Z,67.45
2019-02-05T00:57:15.545Z,67.45
2019-02-05T00:59:44.023Z,67.93
2019-02-05T01:02:12.479Z,68.05
2019-02-05T01:04:40.924Z,68.24
2019-02-05T01:07:09.851Z,68.24
2019-02-05T01:09:38.301Z,68.29
2019-02-05T01:12:06.820Z,68.38
2019-02-05T01:14:36.351Z,68.61
2019-02-05T01:17:04.893Z,68.91
2019-02-05T01:19:33.339Z,69.20
2019-02-05T01:22:01.812Z,69.20
2019-02-05T01:24:30.248Z,68.54
2019-02-05T01:26:58.705Z,68.54
2019-02-05T01:29:27.207Z,69.15
2019-02-05T01:31:55.663Z,69.15
2019-02-05T01:34:24.115Z,68.93
2019-02-05T01:36:52.617Z,68.39
2019-02-05T01:39:21.067Z,68.96
2019-02-05T01:41:49.524Z,69.03
2019-02-05T01:44:18.025Z,69.03
2019-02-05T01:46:46.485Z,68.19
2019-02-05T01:49:14.935Z,67.52
2019-02-05T01:51:43.413Z,67.52
2019-02-05T01:54:13.851Z,67.65
2019-02-05T01:56:42.299Z,66.91
2019-02-05T01:59:10.795Z,66.91
2019-02-05T02:01:39.318Z,67.20
2019-02-05T02:04:07.848Z,67.31
2019-02-05T02:06:36.440Z,67.33
2019-02-05T02:09:05.929Z,66.61
2019-02-05T02:11:34.391Z,66.61
2019-02-05T02:14:02.886Z,67.13
2019-02-05T02:16:33.079Z,67.02
2019-02-05T02:19:01.616Z,66.95
2019-02-05T02:21:30.128Z,67.55
2019-02-05T02:23:58.593Z,66.89
2019-02-05T02:26:27.058Z,66.89
2019-02-05T02:28:55.541Z,67.24
2019-02-05T02:31:24.075Z,67.24
2019-02-05T02:33:52.529Z,67.37
2019-02-05T02:36:21.028Z,67.60
2019-02-05T02:38:49.492Z,67.74
2019-02-05T02:41:18.331Z,67.87
2019-02-05T02:43:46.834Z,67.87
2019-02-05T02:46:15.460Z,67.82
2019-02-05T02:48:44.003Z,67.69
2019-02-05T02:51:12.559Z,67.68
2019-02-05T02:53:41.010Z,67.68
2019-02-05T02:56:09.464Z,68.36
2019-02-05T02:58:37.946Z,68.67
2019-02-05T03:01:06.479Z,68.67
2019-02-05T03:03:34.926Z,68.62
2019-02-05T03:06:03.417Z,69.08
2019-02-05T03:08:32.044Z,69.15
2019-02-05T03:11:00.510Z,69.66
2019-02-05T03:13:29.014Z,69.66
2019-02-05T03:15:57.473Z,69.86
2019-02-05T03:18:26.953Z,70.02
2019-02-05T03:20:55.469Z,70.02
2019-02-05T03:23:23.936Z,70.44
2019-02-05T03:25:52.376Z,70.86
2019-02-05T03:28:20.873Z,70.86
2019-02-05T03:30:49.365Z,70.86
2019-02-05T03:33:19.529Z,71.54
2019-02-05T03:35:48.004Z,72.04
2019-02-05T03:38:16.468Z,72.51
2019-02-05T03:41:00.014Z,72.90
2019-02-05T03:43:28.553Z,73.43
2019-02-05T03:45:58.251Z,73.87
2019-02-05T03:48:27.589Z,74.49
2019-02-05T03:51:14.411Z,74.49
2019-02-05T03:54:05.669Z,74.56
2019-02-05T03:56:56.759Z,74.94
2019-02-05T03:59:58.384Z,75.34
2019-02-05T04:02:51.271Z,75.69
2019-02-05T04:05:32.491Z,75.71
2019-02-05T04:08:36.272Z,75.71
2019-02-05T04:11:28.701Z,75.87
2019-02-05T04:14:00.328Z,76.13
2019-02-05T04:16:56.083Z,76.13
2019-02-05T04:19:50.618Z,75.77
2019-02-05T04:22:34.372Z,75.83
2019-02-05T04:25:38.010Z,75.80
2019-02-05T04:28:21.614Z,75.91
2019-02-05T04:31:04.825Z,76.35
2019-02-05T04:34:01.593Z,76.54
2019-02-05T04:36:38.737Z,76.54
2019-02-05T04:39:13.400Z,77.18
2019-02-05T04:41:47.940Z,77.18
2019-02-05T04:44:25.611Z,77.16
2019-02-05T04:47:21.142Z,77.09
2019-02-05T04:49:52.835Z,77.22
2019-02-05T04:52:40.693Z,77.15
2019-02-05T04:55:21.687Z,77.38
2019-02-05T04:57:59.123Z,77.38
2019-02-05T05:00:57.181Z,77.60
2019-02-05T05:03:28.820Z,77.64
2019-02-05T05:06:00.452Z,78.11
2019-02-05T05:08:44.129Z,77.31
2019-02-05T05:11:13.226Z,77.31
2019-02-05T05:13:41.701Z,77.99
2019-02-05T05:16:10.210Z,78.36
2019-02-05T05:18:38.664Z,78.36
2019-02-05T05:21:08.257Z,77.99
2019-02-05T05:23:36.822Z,78.05
2019-02-05T05:26:05.347Z,78.06
2019-02-05T05:28:34.153Z,77.99
2019-02-05T05:31:02.660Z,78.01
2019-02-05T05:33:31.127Z,77.96
2019-02-05T05:35:59.588Z,77.96
2019-02-05T05:38:28.088Z,78.18
2019-02-05T05:40:56.551Z,77.70
2019-02-05T05:43:25.018Z,77.70
2019-02-05T05:45:53.886Z,77.83
2019-02-05T05:48:22.437Z,78.00
2019-02-05T05:50:50.901Z,78.43
2019-02-05T05:53:19.421Z,77.87
2019-02-05T05:55:47.890Z,78.18
2019-02-05T05:58:22.904Z,78.18
2019-02-05T06:00:46.579Z,78.24
2019-02-05T06:03:15.326Z,78.29
2019-02-05T06:05:43.793Z,78.28
2019-02-05T06:08:12.312Z,78.24
2019-02-05T06:10:40.780Z,78.24
2019-02-05T06:13:09.237Z,78.72
2019-02-05T06:15:37.740Z,78.68
2019-02-05T06:18:06.264Z,79.29
2019-02-05T06:20:35.138Z,79.35
2019-02-05T06:23:04.797Z,79.57
2019-02-05T06:25:33.260Z,79.57
2019-02-05T06:28:01.723Z,79.67
2019-02-05T06:30:30.227Z,79.67
2019-02-05T06:32:58.695Z,79.49
2019-02-05T06:35:27.162Z,79.48
2019-02-05T06:37:55.821Z,79.91
2019-02-05T06:40:24.300Z,79.91
2019-02-05T06:42:52.758Z,79.88
2019-02-05T06:45:21.304Z,79.87
2019-02-05T06:47:49.846Z,79.87
2019-02-05T06:50:18.310Z,79.86
2019-02-05T06:52:46.815Z,79.83
2019-02-05T06:55:15.753Z,79.89
2019-02-05T06:57:44.221Z,79.96
2019-02-05T07:00:15.897Z,79.75
2019-02-05T07:02:44.447Z,80.41
2019-02-05T07:05:12.974Z,80.41
2019-02-05T07:07:41.484Z,80.36
2019-02-05T07:10:19.027Z,80.36
2019-02-05T07:12:47.536Z,80.14
2019-02-05T07:15:16.175Z,79.93
2019-02-05T07:17:49.770Z,79.87
2019-02-05T07:20:16.313Z,79.87
2019-02-05T07:22:45.120Z,79.65
2019-02-05T07:25:21.590Z,79.68
2019-02-05T07:27:50.426Z,79.91
2019-02-05T07:30:24.244Z,79.95
2019-02-05T07:32:52.764Z,79.62
2019-02-05T07:35:21.302Z,79.62
2019-02-05T07:37:50.016Z,79.16
2019-02-05T07:40:20.921Z,79.16
2019-02-05T07:42:49.521Z,79.57
2019-02-05T07:45:20.238Z,79.20
2019-02-05T07:47:48.939Z,79.20
2019-02-05T07:50:20.323Z,79.49
2019-02-05T07:52:48.788Z,79.41
2019-02-05T07:55:17.295Z,79.45
2019-02-05T07:57:46.218Z,79.48
2019-02-05T08:00:23.709Z,79.50
2019-02-05T08:02:52.239Z,79.54
2019-02-05T08:05:32.432Z,79.53
2019-02-05T08:08:01.842Z,79.54
2019-02-05T08:10:30.455Z,79.58
2019-02-05T08:12:59.026Z,79.58
2019-02-05T08:15:29.645Z,79.56
2019-02-05T08:17:58.117Z,79.72
2019-02-05T08:20:26.697Z,79.72
2019-02-05T08:22:55.163Z,79.55
2019-02-05T08:25:23.633Z,79.65
2019-02-05T08:27:53.105Z,79.88
2019-02-05T08:30:36.689Z,79.88
2019-02-05T08:33:05.578Z,79.67
2019-02-05T08:35:34.192Z,79.55
2019-02-05T08:38:02.725Z,79.58
2019-02-05T08:40:31.260Z,79.59
2019-02-05T08:42:59.907Z,79.42
2019-02-05T08:45:36.663Z,79.26
2019-02-05T08:48:07.281Z,79.27
2019-02-05T08:50:36.110Z,79.16
2019-02-05T08:53:04.662Z,79.16
2019-02-05T08:55:33.128Z,79.24
2019-02-05T08:58:07.802Z,79.23
2019-02-05T09:00:38.838Z,79.10
2019-02-05T09:03:09.452Z,78.98
2019-02-05T09:05:37.989Z,79.02
2019-02-05T09:08:06.575Z,79.01
2019-02-05T09:10:36.791Z,78.84
2019-02-05T09:13:05.942Z,78.74
2019-02-05T09:15:34.452Z,78.62
2019-02-05T09:18:02.994Z,78.69
2019-02-05T09:20:31.456Z,78.75
2019-02-05T09:23:00.048Z,78.62
2019-02-05T09:25:28.517Z,78.53
2019-02-05T09:27:56.975Z,78.59
2019-02-05T09:30:28.781Z,78.48
2019-02-05T09:32:59.577Z,78.30
2019-02-05T09:35:28.116Z,78.12
2019-02-05T09:37:57.915Z,78.15
2019-02-05T09:40:29.021Z,78.19
2019-02-05T09:42:57.731Z,78.08
2019-02-05T09:45:27.350Z,78.04
2019-02-05T09:47:56.099Z,77.93
2019-02-05T09:50:24.599Z,77.80
2019-02-05T09:52:53.073Z,77.78
2019-02-05T09:55:22.005Z,77.79
2019-02-05T09:57:50.482Z,77.81
2019-02-05T10:00:24.932Z,77.59
2019-02-05T10:02:53.877Z,77.67
2019-02-05T10:05:27.085Z,77.64
2019-02-05T10:07:55.578Z,77.45
2019-02-05T10:10:24.239Z,77.38
2019-02-05T10:12:52.845Z,77.38
2019-02-05T10:15:27.577Z,77.21
2019-02-05T10:17:56.123Z,77.07
2019-02-05T10:20:25.134Z,76.94
2019-02-05T10:22:55.391Z,77.03
2019-02-05T10:25:23.923Z,77.06
2019-02-05T10:27:52.562Z,77.00
2019-02-05T10:30:23.639Z,76.98
2019-02-05T10:32:52.635Z,76.81
2019-02-05T10:35:21.540Z,76.66
2019-02-05T10:37:50.280Z,76.40
2019-02-05T10:40:19.241Z,76.37
2019-02-05T10:42:47.769Z,76.23
2019-02-05T10:45:22.618Z,76.03
2019-02-05T10:47:51.154Z,75.64
2019-02-05T10:50:20.703Z,75.24
2019-02-05T10:52:49.387Z,75.08
2019-02-05T10:55:20.160Z,75.05
2019-02-05T10:57:50.932Z,74.91
2019-02-05T11:00:25.994Z,75.07
2019-02-05T11:02:55.105Z,75.06
2019-02-05T11:05:26.495Z,75.12
2019-02-05T11:07:55.083Z,75.00
2019-02-05T11:10:23.621Z,74.98
2019-02-05T11:12:52.164Z,74.92
2019-02-05T11:15:26.205Z,74.96
2019-02-05T11:17:54.744Z,74.95
2019-02-05T11:20:25.148Z,74.93
2019-02-05T11:22:53.747Z,75.00
2019-02-05T11:25:22.392Z,75.08
2019-02-05T11:27:50.870Z,75.23
2019-02-05T11:30:31.585Z,75.21
2019-02-05T11:33:00.046Z,75.12
2019-02-05T11:35:29.233Z,75.31
2019-02-05T11:37:57.743Z,75.27
2019-02-05T11:40:34.299Z,75.50
2019-02-05T11:43:02.813Z,75.58
2019-02-05T11:45:31.629Z,75.72
2019-02-05T11:48:01.457Z,75.57
2019-02-05T11:50:30.056Z,75.56
2019-02-05T11:52:58.515Z,75.46
2019-02-05T11:55:34.035Z,75.39
2019-02-05T11:58:02.507Z,75.42
2019-02-05T12:00:38.350Z,75.36
2019-02-05T12:03:11.296Z,75.17
2019-02-05T12:05:40.111Z,75.23
2019-02-05T12:08:08.647Z,75.23
2019-02-05T12:10:37.145Z,75.02
2019-02-05T12:13:05.754Z,75.02
2019-02-05T12:15:34.240Z,74.83
2019-02-05T12:18:02.741Z,74.69
2019-02-05T12:20:31.199Z,74.32
2019-02-05T12:23:00.144Z,74.43
2019-02-05T12:25:28.658Z,74.24
2019-02-05T12:27:57.199Z,73.77
2019-02-05T12:30:45.032Z,73.64
2019-02-05T12:33:07.604Z,73.50
2019-02-05T12:35:36.142Z,73.50
2019-02-05T12:38:06.226Z,73.62
2019-02-05T12:40:35.064Z,73.52
2019-02-05T12:43:03.684Z,73.61
2019-02-05T12:45:35.004Z,73.60
2019-02-05T12:48:03.609Z,73.84
2019-02-05T12:50:37.264Z,73.94
2019-02-05T12:53:06.301Z,73.95
2019-02-05T12:55:34.777Z,73.94
2019-02-05T12:58:03.310Z,74.04
2019-02-05T13:00:40.536Z,74.24
2019-02-05T13:03:09.940Z,74.10
2019-02-05T13:05:39.044Z,74.23
2019-02-05T13:08:07.629Z,74.36
2019-02-05T13:10:47.231Z,74.57
2019-02-05T13:13:18.183Z,74.82
2019-02-05T13:15:47.616Z,74.84
2019-02-05T13:18:16.083Z,74.63
2019-02-05T13:20:44.737Z,74.48
2019-02-05T13:23:13.365Z,74.71
2019-02-05T13:25:42.711Z,74.75
2019-02-05T13:28:12.158Z,74.87
2019-02-05T13:30:40.784Z,74.84
2019-02-05T13:33:10.799Z,74.67
2019-02-05T13:35:39.382Z,74.48
2019-02-05T13:38:07.917Z,74.44
2019-02-05T13:40:37.184Z,74.34
2019-02-05T13:43:06.484Z,74.21
2019-02-05T13:45:37.897Z,74.37
2019-02-05T13:48:07.111Z,74.01
2019-02-05T13:50:35.790Z,73.95
2019-02-05T13:53:04.904Z,73.95
2019-02-05T13:55:38.821Z,74.08
2019-02-05T13:58:07.551Z,74.04
2019-02-05T14:00:44.785Z,74.15
2019-02-05T14:03:13.359Z,74.27
2019-02-05T14:05:41.893Z,74.40
2019-02-05T14:08:10.441Z,74.81
2019-02-05T14:10:44.006Z,75.14
2019-02-05T14:13:12.541Z,75.52
2019-02-05T14:15:43.738Z,75.76
2019-02-05T14:18:12.538Z,75.91
2019-02-05T14:20:41.081Z,75.74
2019-02-05T14:23:09.539Z,75.84
2019-02-05T14:25:38.042Z,75.95
2019-02-05T14:28:06.673Z,76.17
2019-02-05T14:30:37.674Z,76.01
2019-02-05T14:33:06.690Z,76.04
2019-02-05T14:35:35.225Z,76.00
2019-02-05T14:38:04.263Z,76.01
2019-02-05T14:40:32.759Z,76.02
2019-02-05T14:43:01.563Z,75.99
2019-02-05T14:45:30.030Z,75.94
2019-02-05T14:47:58.987Z,75.77
2019-02-05T14:50:38.955Z,75.88
2019-02-05T14:53:08.513Z,75.88
2019-02-05T14:55:37.050Z,76.00
2019-02-05T14:58:07.766Z,76.01
2019-02-05T15:00:37.270Z,76.01
2019-02-05T15:03:10.912Z,76.08
2019-02-05T15:05:40.165Z,76.09
2019-02-05T15:08:09.437Z,76.03
2019-02-05T15:10:37.900Z,75.99
2019-02-05T15:13:06.823Z,76.11
2019-02-05T15:15:35.664Z,76.09
2019-02-05T15:18:05.474Z,76.15
2019-02-05T15:20:39.917Z,76.15
2019-02-05T15:23:08.572Z,76.23
2019-02-05T15:25:37.106Z,76.22
2019-02-05T15:28:05.812Z,76.11
2019-02-05T15:30:36.554Z,76.09
2019-02-05T15:33:08.012Z,76.23
2019-02-05T15:35:37.022Z,76.27
2019-02-05T15:38:05.682Z,76.35
2019-02-05T15:40:34.272Z,76.36
2019-02-05T15:43:03.106Z,76.48
2019-02-05T15:45:31.932Z,76.61
2019-02-05T15:48:00.395Z,76.76
2019-02-05T15:50:28.873Z,76.95
2019-02-05T15:52:57.374Z,77.09
2019-02-05T15:55:25.907Z,77.30
2019-02-05T15:57:54.378Z,77.48
2019-02-05T16:00:24.671Z,77.67
2019-02-05T16:02:53.203Z,77.84
2019-02-05T16:05:21.677Z,78.03
2019-02-05T16:07:50.260Z,78.12
2019-02-05T16:10:25.702Z,78.18
2019-02-05T16:12:54.555Z,78.25
2019-02-05T16:15:23.026Z,78.32
2019-02-05T16:17:51.496Z,78.31
2019-02-05T16:20:21.350Z,78.24
2019-02-05T16:22:50.855Z,78.25
2019-02-05T16:25:19.392Z,78.28
2019-02-05T16:27:47.893Z,78.26
2019-02-05T16:30:22.766Z,78.23
2019-02-05T16:32:51.224Z,78.15
2019-02-05T16:35:19.719Z,78.17
2019-02-05T16:37:48.326Z,78.20
2019-02-05T16:40:19.544Z,78.23
2019-02-05T16:42:48.462Z,78.24
2019-02-05T16:45:19.630Z,78.23
2019-02-05T16:47:48.503Z,78.16
2019-02-05T16:50:28.964Z,78.15
2019-02-05T16:52:57.553Z,78.16
2019-02-05T16:55:25.996Z,78.17
2019-02-05T16:57:54.755Z,78.17
2019-02-05T17:00:33.846Z,78.10
2019-02-05T17:03:02.522Z,78.11
2019-02-05T17:05:33.372Z,78.11
2019-02-05T17:08:02.034Z,78.10
2019-02-05T17:10:30.828Z,78.09
2019-02-05T17:12:59.290Z,78.13
2019-02-05T17:15:27.760Z,78.16
2019-02-05T17:17:56.420Z,78.00
2019-02-05T17:20:26.924Z,78.24
2019-02-05T17:22:55.551Z,78.26
2019-02-05T17:25:26.007Z,78.29
2019-02-05T17:27:55.302Z,78.39
2019-02-05T17:30:26.213Z,78.52
2019-02-05T17:32:54.740Z,78.63
2019-02-05T17:35:23.276Z,78.71
2019-02-05T17:37:51.985Z,78.80
2019-02-05T17:40:22.877Z,78.86
2019-02-05T17:42:52.076Z,78.89
2019-02-05T17:45:32.039Z,78.99
2019-02-05T17:48:02.272Z,79.32
2019-02-05T17:50:31.198Z,79.23
2019-02-05T17:52:59.976Z,79.26
2019-02-05T17:55:28.515Z,79.32
2019-02-05T17:57:56.972Z,79.41
2019-02-05T18:00:36.943Z,79.48
2019-02-05T18:03:06.176Z,79.58
2019-02-05T18:05:35.051Z,79.56
2019-02-05T18:08:03.588Z,79.59
2019-02-05T18:10:32.057Z,79.60
2019-02-05T18:13:00.528Z,79.59
2019-02-05T18:15:35.227Z,79.56
2019-02-05T18:18:03.667Z,79.58
2019-02-05T18:20:33.014Z,79.43
2019-02-05T18:23:01.529Z,79.53
2019-02-05T18:25:30.211Z,79.62
2019-02-05T18:27:58.742Z,79.63
2019-02-05T18:30:34.797Z,79.47
2019-02-05T18:33:05.844Z,79.86
2019-02-05T18:35:33.870Z,79.73
2019-02-05T18:38:04.627Z,79.73
2019-02-05T18:40:33.138Z,79.66
2019-02-05T18:43:01.717Z,79.80
2019-02-05T18:45:30.404Z,79.84
2019-02-05T18:47:58.839Z,79.93
2019-02-05T18:50:28.922Z,79.97
2019-02-05T18:53:00.372Z,80.00
2019-02-05T18:55:34.980Z,80.07
2019-02-05T18:58:09.464Z,80.06
2019-02-05T19:00:38.972Z,80.06
2019-02-05T19:03:14.988Z,80.03
2019-02-05T19:05:38.019Z,80.18
2019-02-05T19:08:06.785Z,80.21
2019-02-05T19:10:35.326Z,80.23
2019-02-05T19:13:04.241Z,80.19
2019-02-05T19:15:35.544Z,80.22
2019-02-05T19:18:05.409Z,80.25
2019-02-05T19:20:33.910Z,80.34
2019-02-05T19:23:03.344Z,80.31
2019-02-05T19:25:36.317Z,80.41
2019-02-05T19:28:05.113Z,80.82
2019-02-05T19:30:37.925Z,80.38
2019-02-05T19:33:06.421Z,80.43
2019-02-05T19:35:34.877Z,80.44
2019-02-05T19:38:03.444Z,80.58
2019-02-05T19:40:31.900Z,80.65
2019-02-05T19:43:00.367Z,80.65
2019-02-05T19:45:30.592Z,80.63
2019-02-05T19:48:01.061Z,80.72
2019-02-05T19:50:29.624Z,80.84
2019-02-05T19:52:58.182Z,80.87
2019-02-05T19:55:26.856Z,80.96
2019-02-05T19:57:55.603Z,81.10
2019-02-05T20:00:24.197Z,81.17
2019-02-05T20:02:55.468Z,81.17
2019-02-05T20:05:22.840Z,81.47
2019-02-05T20:07:53.260Z,81.75
2019-02-05T20:10:21.723Z,81.87
2019-02-05T20:12:50.213Z,81.87
2019-02-05T20:15:19.827Z,82.05
2019-02-05T20:17:48.531Z,82.28
2019-02-05T20:20:22.406Z,83.07
2019-02-05T20:22:51.401Z,83.07
2019-02-05T20:25:20.343Z,82.68
2019-02-05T20:27:48.848Z,83.52
2019-02-05T20:30:19.173Z,83.52
2019-02-05T20:32:47.648Z,83.92
2019-02-05T20:35:16.279Z,84.05
2019-02-05T20:37:44.782Z,84.05
2019-02-05T20:40:19.066Z,84.19
2019-02-05T20:42:47.532Z,84.24
2019-02-05T20:45:16.118Z,84.09
2019-02-05T20:47:44.698Z,84.60
2019-02-05T20:50:20.945Z,84.60
2019-02-05T20:52:49.408Z,84.83
2019-02-05T20:55:22.511Z,84.83
2019-02-05T20:57:51.449Z,85.09
2019-02-05T21:00:28.633Z,84.95
2019-02-05T21:02:57.201Z,84.54
2019-02-05T21:05:25.679Z,85.36
2019-02-05T21:07:54.148Z,84.88
2019-02-05T21:10:25.458Z,84.88
2019-02-05T21:12:53.978Z,85.21
2019-02-05T21:15:22.804Z,84.94
2019-02-05T21:17:51.425Z,84.94
2019-02-05T21:20:30.623Z,85.11
2019-02-05T21:22:57.631Z,85.19
2019-02-05T21:25:27.813Z,85.07
2019-02-05T21:27:58.193Z,85.01
2019-02-05T21:30:26.663Z,84.72
2019-02-05T21:32:55.190Z,84.98
2019-02-05T21:35:23.747Z,85.27
2019-02-05T21:37:52.248Z,85.27
2019-02-05T21:40:23.532Z,84.88
2019-02-05T21:42:51.999Z,84.88
2019-02-05T21:45:32.325Z,84.88
2019-02-05T21:48:00.865Z,85.02
2019-02-05T21:50:29.336Z,84.95
2019-02-05T21:52:58.206Z,84.96
2019-02-05T21:55:27.311Z,84.96
2019-02-05T21:57:56.162Z,84.85
2019-02-05T22:00:34.758Z,84.78
2019-02-05T22:03:03.386Z,84.78
2019-02-05T22:05:32.891Z,84.69
2019-02-05T22:08:01.867Z,84.82
2019-02-05T22:10:30.489Z,85.05
2019-02-05T22:12:59.026Z,85.05
2019-02-05T22:15:27.908Z,84.56
2019-02-05T22:17:56.384Z,85.54
2019-02-05T22:20:28.025Z,85.54
2019-02-05T22:22:57.139Z,85.40
2019-02-05T22:25:30.719Z,85.40
2019-02-05T22:27:59.182Z,85.71
2019-02-05T22:30:36.198Z,85.84
2019-02-05T22:33:07.473Z,85.66
2019-02-05T22:35:36.001Z,86.61
2019-02-05T22:38:04.953Z,86.38
2019-02-05T22:40:33.428Z,85.97
2019-02-05T22:43:02.366Z,85.97
2019-02-05T22:45:31.963Z,86.02
2019-02-05T22:48:00.568Z,86.29
2019-02-05T22:50:31.964Z,86.28
2019-02-05T22:53:01.406Z,86.27
2019-02-05T22:55:29.943Z,86.26
2019-02-05T22:57:58.413Z,86.59
2019-02-05T23:00:34.730Z,85.74
2019-02-05T23:03:03.389Z,85.84
2019-02-05T23:06:11.116Z,85.84
2019-02-05T23:08:39.761Z,85.98
2019-02-05T23:11:40.127Z,85.98
2019-02-05T23:14:08.666Z,85.98
2019-02-05T23:16:37.195Z,85.72
2019-02-05T23:19:05.765Z,85.72
2019-02-05T23:21:34.303Z,85.85
2019-02-05T23:24:02.781Z,85.52
2019-02-05T23:26:31.300Z,85.52
2019-02-05T23:28:59.773Z,85.28
2019-02-05T23:31:28.240Z,85.64
2019-02-05T23:33:56.742Z,85.66
2019-02-05T23:36:25.201Z,85.66
2019-02-05T23:38:53.935Z,85.33
2019-02-05T23:41:22.444Z,85.22
2019-02-05T23:43:50.915Z,85.15
2019-02-05T23:46:19.383Z,85.04
2019-02-05T23:48:47.885Z,84.96
2019-02-05T23:51:16.365Z,84.96
2019-02-05T23:53:44.836Z,84.92
2019-02-05T23:56:25.401Z,84.84
2019-02-05T23:58:45.384Z,84.83
